Challenge Cours la Province !

Les Côtes Du Dragon - Saint-Georges-Sur-Meuse (11.00 km)

dimanche 03 novembre 2019

Vous pouvez trouver Le classement original sur : www.otopservices.be  
CHALLENGE COURS LA PROVINCE
LES CÔTES DU DRAGON - SAINT-GEORGES-SUR-MEUSE
DISTANCE : 10.96 km
dimanche 03 novembre 2019
 
Place dos NOM Catégorie Pl/cat temps temps/km Vitesse
01:00:00              
1 88 PATRICK PHILIPPE VÉTÉRAN 2 1 00:41:38 03:48 15.80
2 158 JEAN VANHEES SENIOR H 1 00:42:15 03:51 15.57
3 200 MICHEL MATHOT VETERAN 1 1 00:42:18 03:51 15.55
4 101 LAURENT OLIVIER VETERAN 1 2 00:43:45 03:59 15.04
5 154 ROBBIE TERMEER SENIOR H 2 00:44:05 04:01 14.92
6 199 REGIS RAMELOT SENIOR H 3 00:44:30 04:04 14.78
7 259 THOMAS SULEAU SENIOR H 4 00:44:49 04:05 14.68
8 157 PIERRE RESTIGLIAN SENIOR H 5 00:44:51 04:05 14.67
9 225 ALAIN-CLAIRE LECLUSE SENIOR H 6 00:44:55 04:06 14.65
10 261 ARNAUD THYS SENIOR H 7 00:45:21 04:08 14.51
11 121 MOURAD IDRAF VETERAN 1 3 00:45:24 04:08 14.49
12 127 BERTRAND SCHMITZ SENIOR H 8 00:46:06 04:12 14.27
13 339 BRUNO STANCHER SENIOR H 9 00:46:35 04:15 14.12
14 512 GUENAEL DEVILLET VETERAN 1 4 00:46:40 04:15 14.10
15 397 ALAIN XHROUET VÉTÉRAN 2 2 00:46:43 04:16 14.08
16 391 DIRK WILLEMS VÉTÉRAN 2 3 00:46:48 04:16 14.06
17 89 IRENE TOSI SENIOR D 1 00:46:54 04:17 14.03
18 573 THOMAS LEGRAND ESPOIR H 1 00:47:34 04:20 13.83
19 572 DAVID FAINGNAERT SENIOR H 10 00:47:37 04:21 13.81
20 49 KÉVIN PEREAUX SENIOR H 11 00:48:02 04:23 13.69
21 161 ERIC VAN DEN BLINK VETERAN 1 5 00:48:08 04:23 13.67
22 104 LIONEL PARENT VETERAN 1 6 00:48:40 04:26 13.52
23 182 VINCENT DEGUELDRE SENIOR H 12 00:48:53 04:28 13.46
24 569 ALPHA OLEFS SENIOR H 13 00:49:00 04:28 13.42
25 379 FABIAN DELCOUR VETERAN 1 7 00:49:22 04:30 13.32
26 170 HASSN HAOUCHINE VÉTÉRAN 2 4 00:49:38 04:32 13.25
27 253 JEAN-EMILE MELARD SENIOR H 14 00:49:44 04:32 13.23
28 132 CORENTIN WASSON SENIOR H 15 00:49:58 04:33 13.16
29 260 CORENTIN DE KEYSER SENIOR H 16 00:50:00 04:34 13.16
30 322 PHILIPPE ROI VÉTÉRAN 2 5 00:50:04 04:34 13.14
31 51 BENOIT BAUMANS VETERAN 1 8 00:50:06 04:34 13.13
32 562 PIERRE PERSOON SENIOR H 17 00:50:20 04:35 13.07
33 240 CARMELO PILITTERI VÉTÉRAN 2 6 00:50:25 04:36 13.05
34 373 RENAUD RASKINET VETERAN 1 9 00:50:30 04:36 13.03
35 164 PASCAL LAMBOTTE VÉTÉRAN 2 7 00:50:33 04:37 13.01
36 159 JOSE FOGUENNE VÉTÉRAN 2 8 00:50:36 04:37 13.00
37 328 GUILLAUME CHARLIER SENIOR H 18 00:50:41 04:37 12.98
38 247 JEAN-MARC BOUMAL VETERAN 1 10 00:50:54 04:39 12.92
39 381 DIMITRY MODAERT VETERAN 1 11 00:50:56 04:39 12.92
40 361 MARC LONEUX VETERAN 1 12 00:50:58 04:39 12.91
41 87 VINCENT DEBIOLLE VÉTÉRAN 2 9 00:51:02 04:39 12.89
42 369 FABIEN JACOBS VÉTÉRAN 2 10 00:51:12 04:40 12.85
43 160 FREDERIC GRAINDORGE VETERAN 1 13 00:51:17 04:41 12.83
44 321 LAURENT VITELLO SENIOR H 19 00:51:22 04:41 12.81
45 76 MICHEL BIELEN VETERAN 3 1 00:51:35 04:42 12.75
46 38 MAUDE DEMOITIE SENIOR D 2 00:51:37 04:42 12.74
47 345 RAPHAEL ROQUET VETERAN 1 14 00:51:44 04:43 12.72
48 238 NATHAN WERPIN SENIOR H 20 00:51:57 04:44 12.66
49 24 LUCIEN COLLARD VETERAN 3 2 00:52:00 04:45 12.65
50 365 ROB HOREMANS VETERAN 1 15 00:52:03 04:45 12.64
51 67 OLIVIER GAILLET SENIOR H 21 00:52:07 04:45 12.62
52 219 SEBASTIEN FRERE SENIOR H 22 00:52:08 04:45 12.62
53 323 BENOIT SEYNAEVE VETERAN 1 16 00:52:08 04:45 12.62
54 342 ABDEL EL KALISCH VÉTÉRAN 2 11 00:52:12 04:46 12.60
55 14 PHILIPPE GHEURY VETERAN 1 17 00:52:24 04:47 12.55
56 136 JEAN-FRANCOIS DELOGE VETERAN 1 18 00:52:34 04:48 12.51
57 550 CHRISTEL CRAVATTE SENIOR D 3 00:52:37 04:48 12.50
58 542 SEBASTIEN DUHR VETERAN 1 19 00:52:55 04:50 12.43
59 239 PHILIPPE MAHAUX VETERAN 1 20 00:52:55 04:50 12.43
60 191 PHILIPPE ETIENNE SENIOR H 23 00:53:01 04:50 12.41
61 146 DAVID FOLDESI VETERAN 1 21 00:53:01 04:50 12.41
62 509 DAVID VROOMEN VETERAN 1 22 00:53:18 04:52 12.34
63 256 PASCAL DEWALEFF VETERAN 1 23 00:53:19 04:52 12.34
64 57 DIDIER DENDAL VÉTÉRAN 2 12 00:53:20 04:52 12.33
65 96 FRANCOISE PISCART AINÉE 1 1 00:53:29 04:53 12.30
66 48 FRANÇOIS-DAVID GARCIA VETERAN 1 24 00:53:32 04:53 12.29
67 77 PAUL RIHON VETERAN 3 3 00:53:39 04:54 12.26
68 106 PHILIPPE KERENS VÉTÉRAN 2 13 00:53:53 04:55 12.21
69 28 CHILDERIC RENARD VETERAN 1 25 00:54:06 04:56 12.16
70 52 ERIC MARTIN VÉTÉRAN 2 14 00:54:08 04:56 12.15
71 554 VINCENT GAMBINI SENIOR H 24 00:54:11 04:57 12.14
72 7 THIERRY RENARD VETERAN 1 26 00:54:12 04:57 12.14
73 244 FRANCIS VOLDERS VÉTÉRAN 2 15 00:54:13 04:57 12.13
74 78 JULIEN MEULEMANS SENIOR H 25 00:54:14 04:57 12.13
75 72 BEATRICE KEVELAER AINÉE 1 2 00:54:20 04:57 12.11
76 194 DOMINIQUE GILLET VÉTÉRAN 2 16 00:54:26 04:58 12.08
77 190 BENJAMIN VELZ SENIOR H 26 00:54:33 04:59 12.06
78 241 RAPHAEL MALCHAIRE VETERAN 1 27 00:55:06 05:02 11.94
79 167 DANIEL WEIDNER VETERAN 3 4 00:55:14 05:02 11.91
80 320 FABIAN VITELLO SENIOR H 27 00:55:15 05:02 11.91
81 206 VINCENT BOURS VÉTÉRAN 2 17 00:55:39 05:05 11.82
82 151 SANNY ROYEN SENIOR H 28 00:55:45 05:05 11.80
83 131 NICO DE MARCHI VÉTÉRAN 2 18 00:55:59 05:06 11.75
84 36 FRANCOIS MICHELIS SENIOR H 29 00:56:06 05:07 11.73
85 35 ANTONIO ROMOLO SENIOR H 30 00:56:06 05:07 11.73
86 548 SERGE FONTAINE VETERAN 1 28 00:56:07 05:07 11.72
87 547 PIERRE NYSSEN VÉTÉRAN 2 19 00:56:17 05:08 11.69
88 166 PHILIPPE CARABIN VETERAN 3 5 00:56:27 05:09 11.65
89 183 JEAN-LUC LETELLIER VÉTÉRAN 2 20 00:56:48 05:11 11.58
90 224 MATHIEU LOUIS SENIOR H 31 00:56:50 05:11 11.57
91 17 NICOLAS BYNENS VETERAN 3 6 00:56:52 05:11 11.57
92 176 PASCAL COLLARD VÉTÉRAN 2 21 00:57:09 05:13 11.51
93 553 GAETAN BOTTIN VETERAN 1 29 00:57:20 05:14 11.47
94 58 JEAN-LUC DELEDICQUE VÉTÉRAN 2 22 00:57:22 05:14 11.47
95 33 SÉBASTIEN LECLERE SENIOR H 32 00:57:25 05:14 11.46
96 19 DANIEL GRUSLIN VÉTÉRAN 2 23 00:57:33 05:15 11.43
97 215 TONY CICCARELLA VETERAN 1 30 00:57:47 05:16 11.38
98 326 GEOFFREY LEONARD SENIOR H 33 00:57:49 05:16 11.38
99 350 AUDRIC SCHOONBROODT SENIOR H 34 00:57:51 05:17 11.37
100 186 BERNARD BORSU SENIOR H 35 00:57:54 05:17 11.36
101 368 JEREMIE DENEUMOSTIER SENIOR H 36 00:57:56 05:17 11.35
102 319 MARTIAL DHEUR VÉTÉRAN 2 24 00:57:56 05:17 11.35
103 340 FABIEN STANCHER VÉTÉRAN 2 25 00:57:59 05:17 11.34
104 230 CHRISTIAN COUNET VÉTÉRAN 2 26 00:58:03 05:18 11.33
105 216 FRANCOIS FIASSE VETERAN 1 31 00:58:05 05:18 11.33
106 359 GUILLAUME BEYER SENIOR H 37 00:58:06 05:18 11.32
107 235 CECILE PAPS AINÉE 1 3 00:58:08 05:18 11.32
108 135 CHRISTOPHE CANEVE SENIOR H 38 00:58:21 05:19 11.27
109 325 MICHAEL GYEN VETERAN 1 32 00:58:29 05:20 11.25
110 378 OLIVIER MAHY VÉTÉRAN 2 27 00:58:43 05:21 11.20
111 347 BENOIT CLOSE-LECOCQ SENIOR H 39 00:58:51 05:22 11.18
112 366 CHRISTIAN VANDEVENNE VETERAN 3 7 00:58:52 05:22 11.17
113 71 BERNARD FERNANDEZ HERRERA VETERAN 1 33 00:58:53 05:22 11.17
114 222 FABIAN VALDES VETERAN 1 34 00:58:57 05:23 11.16
115 26 CARINE MUNAUT AINÉE 2 1 00:59:03 05:23 11.14
116 336 BENOIT NELIS VÉTÉRAN 2 28 00:59:07 05:24 11.13
117 534 ERIC MARQUET VÉTÉRAN 2 29 00:59:08 05:24 11.12
118 536 CHRISTOPHE WITTEVRONGEL VETERAN 1 35 00:59:10 05:24 11.12
119 508 CELSO LOPEZ VETERAN 3 8 00:59:11 05:24 11.11
120 205 THOMAS COP SENIOR H 40 00:59:18 05:25 11.09
121 163 DIDIER TONN VETERAN 1 36 00:59:19 05:25 11.09
122 171 GUY BONA VETERAN 3 9 00:59:24 05:25 11.07
123 173 FRANCOIS ARGENTO VÉTÉRAN 2 30 00:59:25 05:25 11.07
124 114 OLIVIA WARSAGE SENIOR D 4 00:59:31 05:26 11.05
125 130 FABIAN MAURY VETERAN 1 37 00:59:37 05:26 11.03
126 129 DANY HORDEBISE VÉTÉRAN 2 31 00:59:38 05:26 11.03
127 248 PATRICK BERTRAND VETERAN 1 38 00:59:46 05:27 11.01
128 232 MARIE-HELENE DELREZ AINÉE 1 4 00:59:48 05:27 11.00
129 122 EDDY HOYLAERTS VETERAN 3 10 00:59:49 05:27 11.00
130 568 MICHAEL VAN RYMENAM SENIOR H 41 00:59:53 05:28 10.98
131 144 NICOLAS ARINCON TORRES SENIOR H 42 00:59:57 05:28 10.97
132 395 ENZO TUZZOLINO VETERAN 1 39 00:59:59 05:28 10.97
133 2 FLORENCE SOMJA SENIOR D 5 01:00:11 05:29 10.93
134 358 FRANCOIS WEGRIA VETERAN 1 40 01:00:21 05:30 10.90
135 399 NICOLAS PARENT SENIOR H 43 01:00:22 05:30 10.90
136 179 VINCENT COLLARD SENIOR H 44 01:00:29 05:31 10.88
137 384 CHRISTOPHE CHRISTIAENS VETERAN 1 41 01:00:37 05:32 10.85
138 16 JEREMY JOLIET SENIOR H 45 01:00:41 05:32 10.84
139 355 HENDRIK DRUART VÉTÉRAN 2 32 01:00:44 05:32 10.83
140 543 OLIVIER BURNIAT SENIOR H 46 01:00:52 05:33 10.81
141 125 PHILIPPE VERVOORT VETERAN 1 42 01:01:01 05:34 10.78
142 382 OLIVIER LAMINE VETERAN 1 43 01:01:09 05:35 10.76
143 330 PATRICK DUFLOT VETERAN 1 44 01:01:17 05:35 10.73
144 264 VINCENT GONZALEZ VETERAN 1 45 01:01:22 05:36 10.72
145 142 SARA DEFENDI AINÉE 1 5 01:01:30 05:37 10.70
146 372 NICOLAS GOFFART SENIOR H 47 01:01:30 05:37 10.70
147 32 BRUNO BEYER VÉTÉRAN 2 33 01:01:31 05:37 10.69
148 92 MARIE-CÉLINE LOUWETTE AINÉE 2 2 01:01:38 05:37 10.67
149 398 GIANNI COVOLO VETERAN 1 46 01:01:41 05:38 10.66
150 538 NATHALIE VERSCHUEREN AINÉE 1 6 01:01:43 05:38 10.66
151 27 JEAN-PAUL HOUTAIN VÉTÉRAN 2 34 01:01:46 05:38 10.65
152 377 CHRISTOPHE DETRIXHE VETERAN 1 47 01:02:02 05:39 10.60
153 535 KEVIN PHILLIPS SENIOR H 48 01:02:05 05:40 10.60
154 252 BRAHIM GHARBI SENIOR H 49 01:02:08 05:40 10.59
155 545 BENOIT VAN PUYMBROECK SENIOR H 50 01:02:12 05:40 10.58
156 82 LOUIS LEJEUNE SENIOR H 51 01:02:17 05:41 10.56
157 413 LAURENT CAILLABA VÉTÉRAN 2 35 01:02:25 05:42 10.54
158 549 NATHALIE DAUTREBANDE AINÉE 1 7 01:02:39 05:43 10.50
159 221 FREDERIC WILLEMS VETERAN 1 48 01:02:40 05:43 10.50
160 140 CATHERINE LANGE SENIOR D 6 01:02:51 05:44 10.47
161 83 MARCELLO CARACINI VÉTÉRAN 2 36 01:02:51 05:44 10.47
162 50 HUGUES BOTQUIN VÉTÉRAN 2 37 01:03:02 05:45 10.44
163 188 PAULINE SELDESLACHTS SENIOR D 7 01:03:07 05:45 10.42
164 148 JEAN-FRANCOIS OLIVIER VETERAN 1 49 01:03:12 05:46 10.41
165 520 OLIVIER DESTEXHE VETERAN 1 50 01:03:25 05:47 10.37
166 81 HUGO RADDOUX VETERAN 3 11 01:03:34 05:48 10.35
167 120 SANDRINE SEYEN AINÉE 1 8 01:03:38 05:48 10.34
168 30 SEBASTIEN ARINCON TORRES SENIOR H 52 01:03:48 05:49 10.31
169 389 MARC SENARD VÉTÉRAN 2 38 01:03:57 05:50 10.29
170 227 BERNARD LEROY VETERAN 1 51 01:04:00 05:50 10.28
171 375 PHILIPPE KRUSY VETERAN 1 52 01:04:04 05:51 10.27
172 329 EDOUARD MORANA VÉTÉRAN 2 39 01:04:09 05:51 10.25
173 544 THOMAS HAYEN SENIOR H 53 01:04:14 05:52 10.24
174 332 FABIAN BALDO VÉTÉRAN 2 40 01:04:21 05:52 10.22
175 63 ANTONIO PIRARD SENIOR H 54 01:04:22 05:52 10.22
176 65 RENAUD SCHUTZ VETERAN 1 53 01:04:23 05:52 10.22
177 152 FRANK SMETS SENIOR H 55 01:04:37 05:54 10.18
178 250 OLI GAUTHIER VETERAN 1 54 01:04:43 05:54 10.16
179 387 NATHALIE ARNOULD AINÉE 1 9 01:04:48 05:55 10.15
180 386 DOMINIQUE VERLAINE VETERAN 1 55 01:04:48 05:55 10.15
181 211 DJO KEVITCH VETERAN 1 56 01:04:49 05:55 10.15
182 185 CALOGERO MAURO VÉTÉRAN 4 1 01:04:56 05:55 10.13
183 4 ROLAND KUPPER SENIOR H 56 01:05:04 05:56 10.11
184 62 JACQUELINE COURTIN AINÉE 2 3 01:05:12 05:57 10.09
185 208 CHARLOTTE GRZESINSKI SENIOR D 8 01:05:14 05:57 10.08
186 254 THIERRY ROME VÉTÉRAN 2 41 01:05:15 05:57 10.08
187 376 CAROLINE FEKETE AINÉE 2 4 01:05:40 05:59 10.02
188 521 ANTONIO MORALES LEDESMA VÉTÉRAN 2 42 01:06:03 06:01 9.96
189 15 ALICE BONTE AINÉE 1 10 01:06:12 06:02 9.94
190 242 LUCAS MALCHAIRE SENIOR H 57 01:06:14 06:02 9.93
191 237 ROSARIO VITELLO VETERAN 1 57 01:06:14 06:02 9.93
192 532 CEDRIC WILLEM SENIOR H 58 01:06:27 06:04 9.90
193 262 ALAIN PONCELET VETERAN 3 12 01:06:32 06:04 9.89
194 209 PATRICIA VANDERMISSEN AINÉE 2 5 01:06:39 06:05 9.87
195 511 PHILIPPE HABRAN VÉTÉRAN 2 43 01:06:45 06:05 9.85
196 324 LAURENT GONZALEZ SENIOR H 59 01:06:51 06:06 9.84
197 80 JULIE DESDEMOUSTIER SENIOR D 9 01:07:20 06:08 9.77
198 251 PIERRE GIELEN SENIOR H 60 01:07:29 06:09 9.75
199 193 JEAN-CLAUDE ROLAND VETERAN 3 13 01:07:36 06:10 9.73
200 357 GIUSEPPE DI GIROLAMO VÉTÉRAN 2 44 01:07:49 06:11 9.70
201 400 VANESSA WATHELET AINÉE 1 11 01:07:53 06:12 9.69
202 537 LAURENT PAQUOT SENIOR H 61 01:08:00 06:12 9.67
203 348 DAVID CRANINX SENIOR H 62 01:08:12 06:13 9.65
204 396 GERARD DUPLOUY VETERAN 3 14 01:08:13 06:13 9.64
205 374 PATRICK BORSU SENIOR H 63 01:08:14 06:13 9.64
206 168 PHILIPPE VANDERSCHUEREN VETERAN 1 58 01:08:29 06:15 9.61
207 66 CLAUDE LARMINIER VETERAN 3 15 01:08:47 06:16 9.56
208 84 JULIEN MARIQUE SENIOR H 64 01:08:50 06:17 9.56
209 346 NICOLAS GREGOIRE VETERAN 1 59 01:09:11 06:19 9.51
210 541 JEROME DANTHINNE VETERAN 1 60 01:09:20 06:19 9.49
211 533 ISABELLE LAURENT AINÉE 2 6 01:09:28 06:20 9.47
212 393 FRANCIS SIMOENS VÉTÉRAN 2 45 01:09:29 06:20 9.47
213 34 JEAN-PHILIPPE SIMIOLI SENIOR H 65 01:09:34 06:21 9.46
214 510 SYLVIE NAHON AINÉE 2 7 01:10:03 06:23 9.39
215 46 JOSIANE STIERNON AINÉE 3 1 01:10:03 06:23 9.39
216 351 CARINE ROI AINÉE 2 8 01:10:07 06:24 9.38
217 202 JACQUELINE FERNANDEZ AINÉE 1 12 01:10:19 06:25 9.35
218 204 MARIA STICCA AINÉE 1 13 01:10:19 06:25 9.35
219 385 PERRINE MEYER SENIOR D 10 01:10:21 06:25 9.35
220 25 FLORIAN MASSET SENIOR H 66 01:10:27 06:26 9.34
221 527 CYRIELLE DETHIER SENIOR D 11 01:10:31 06:26 9.33
222 331 CAROLINE MOUREAU AINÉE 1 14 01:10:31 06:26 9.33
223 531 CELIA DETHIER SENIOR D 12 01:10:31 06:26 9.33
224 187 CARINE CORNET AINÉE 2 9 01:10:32 06:26 9.33
225 23 PHILIPPE MASSET VETERAN 1 61 01:10:34 06:26 9.32
226 147 LAURENT LEONARD VETERAN 1 62 01:10:39 06:27 9.31
227 565 ROMANO LUSI VETERAN 1 63 01:10:42 06:27 9.30
228 162 ERIC DARIMONT VETERAN 1 64 01:11:21 06:30 9.22
229 513 VALERIE THIRION SENIOR D 13 01:12:02 06:34 9.13
230 42 VALÉRIE DURELLO SENIOR D 14 01:12:47 06:38 9.04
231 43 LAETITIA PAPAVASSILIOU AINÉE 1 15 01:12:48 06:38 9.04
232 571 JEAN-FRANCOIS DELVENNE VÉTÉRAN 2 46 01:13:26 06:42 8.96
233 566 CORA FRESON SENIOR D 15 01:13:34 06:43 8.94
234 567 ANNE-LOUISE DELFORGE AINÉE 1 16 01:13:44 06:44 8.92
235 70 FLORENCE WARNIER SENIOR D 16 01:13:49 06:44 8.91
236 343 ANNE HAMER SENIOR D 17 01:14:03 06:45 8.88
237 344 EMMANUELLE KEVELAER AINÉE 1 17 01:14:03 06:45 8.88
238 370 JEREMY BABIC SENIOR H 67 01:14:11 06:46 8.87
239 246 CATHERINE ZICOT AINÉE 1 18 01:15:31 06:53 8.71
240 383 JEANNINE JOIRIS AINÉE 1 19 01:16:04 06:56 8.65
241 217 DELPHINE MULLER SENIOR D 18 01:16:05 06:56 8.65
242 570 HENRY HARDY VÉTÉRAN 4 2 01:16:06 06:56 8.64
243 195 LUC POLLARD VÉTÉRAN 2 47 01:16:06 06:56 8.64
244 540 FRANCIS DANIELNAVARRO VETERAN 1 65 01:16:24 06:58 8.61
245 6 MARGUERITE OLIVIER AINÉE 2 10 01:16:28 06:58 8.60
246 169 AURELIE COUNET SENIOR D 19 01:16:30 06:59 8.60
247 134 STEPHANIE THIRY SENIOR D 20 01:16:39 06:59 8.58
248 29 LUCAS RENARD SENIOR H 68 01:17:25 07:04 8.50
249 20 JEANNE KABWE AINÉE 2 11 01:18:10 07:08 8.42
250 141 NATHALIE LISIK AINÉE 2 12 01:18:11 07:08 8.41
251 210 PATRICIA MAGUIN AINÉE 2 13 01:18:11 07:08 8.41
252 220 ANNE-FRANCOISE MIEVIS AINÉE 2 14 01:19:08 07:13 8.31
253 265 CELINE OGER SENIOR D 21 01:19:15 07:14 8.30
254 229 SANDINA D'AMICO AINÉE 2 15 01:19:25 07:15 8.28
255 234 DELPHINE BARBE SENIOR D 22 01:19:43 07:16 8.25
256 341 LAETITIA PELLEGRINO SENIOR D 23 01:19:44 07:16 8.25
257 367 JEAN-DANIEL DEVOS VÉTÉRAN 2 48 01:21:10 07:24 8.10
258 360 RUDI DOCQUIER VÉTÉRAN 2 49 01:21:12 07:24 8.10
259 108 SERGE MULLER VÉTÉRAN 2 50 01:21:15 07:25 8.10
260 380 JIM RENSON VETERAN 1 66 01:21:38 07:27 8.06
261 552 JONATHAN LEROY SENIOR H 69 01:22:01 07:29 8.02
262 539 FREDERIC HEYVAERT SENIOR H 70 01:22:46 07:33 7.95
263 335 NATHALIE GOFFAUX AINÉE 1 20 01:23:40 07:38 7.86
264 266 PASCALE MAURI AINÉE 2 16 01:23:42 07:38 7.86
265 268 MONIQUE DELVIGNE AINÉE 3 2 01:23:48 07:39 7.85
266 45 VIRGINIE CRANINX SENIOR D 24 01:25:18 07:47 7.71
267 61 RAFFAELE SIGISMONDI VETERAN 1 67 01:25:20 07:47 7.71
268 269 MARIE IUSSA AINÉE 3 3 01:25:31 07:48 7.69
269 109 PETRA BRAUN AINÉE 2 17 01:26:20 07:52 7.62
270 73 HELENE WARNIER SENIOR D 25 01:26:29 07:53 7.61
271 263 STEPHANIE FRISSCHEN AINÉE 1 21 01:26:29 07:53 7.61
272 85 CÉCILE GRENSON SENIOR D 26 01:29:22 08:09 7.36
273 68 VERONIQUE GRENSON AINÉE 2 18 01:29:22 08:09 7.36
274 546 HELENE GRENSON SENIOR D 27 01:29:22 08:09 7.36
275 523 CHRISTIAN FONTAINE VETERAN 3 16 01:29:42 08:11 7.33
276 526 CLAIRE BORUS AINÉE 3 4 01:29:42 08:11 7.33
277 3 JOELLE SCHMETZ AINÉE 2 19 01:32:29 08:26 7.11
278 99 RUDY GROSSI VETERAN 1 68 01:33:08 08:30 7.06